Terminal Aerodrome Forecast
Issued by NWS

Home | Current Version | Previous Version | Text Only | Print | Product List | Glossary On
Versions: 1 2 3 4 5 6 7 8 9 10 11 12 13 14 15
000
FTUS43 KOAX 032343
TAFBFF
TAF
KBFF 032343Z 0400/0424 VRB05KT P6SM FEW050
     FM040600 11010KT P6SM VCTS SCT050CB
     FM041200 12008KT P6SM SCT050
     FM042000 08008KT P6SM VCTS FEW050CB=

USA.gov is the U.S. government's official web portal to all federal, state and local government web resources and services.